createdAt,value
2023-03-08T00:00:35.291Z,97621.22
2023-03-08T00:03:03.211Z,97637.84
2023-03-08T00:05:30.072Z,97634.50
2023-03-08T00:07:56.915Z,97644.88
2023-03-08T00:10:24.261Z,97649.75
2023-03-08T00:12:51.084Z,97640.16
2023-03-08T00:15:18.997Z,97635.84
2023-03-08T00:17:45.854Z,97640.81
2023-03-08T00:20:13.813Z,97638.50
2023-03-08T00:22:42.453Z,97626.97
2023-03-08T00:25:11.342Z,97634.84
2023-03-08T00:27:38.757Z,97633.53
2023-03-08T00:30:06.622Z,97626.31
2023-03-08T00:32:33.565Z,97647.66
2023-03-08T00:35:00.461Z,97657.31
2023-03-08T00:37:27.269Z,97651.94
2023-03-08T00:39:54.991Z,97660.75
2023-03-08T00:42:22.242Z,97669.06
2023-03-08T00:44:49.271Z,97666.75
2023-03-08T00:47:16.359Z,97653.22
2023-03-08T00:49:44.018Z,97670.88
2023-03-08T00:52:11.080Z,97663.00
2023-03-08T00:54:38.596Z,97644.81
2023-03-08T00:57:05.521Z,97645.16
2023-03-08T00:59:32.348Z,97639.94
2023-03-08T01:02:00.835Z,97618.44
2023-03-08T01:04:27.727Z,97631.41
2023-03-08T01:06:54.574Z,97608.63
2023-03-08T01:09:21.433Z,97626.00
2023-03-08T01:11:48.272Z,97611.03
2023-03-08T01:14:15.134Z,97614.06
2023-03-08T01:16:42.700Z,97597.59
2023-03-08T01:19:11.408Z,97590.88
2023-03-08T01:21:38.294Z,97575.09
2023-03-08T01:24:05.856Z,97567.13
2023-03-08T01:26:32.783Z,97590.81
2023-03-08T01:28:59.610Z,97592.38
2023-03-08T01:31:31.631Z,97569.81
2023-03-08T01:33:58.840Z,97577.13
2023-03-08T01:36:27.967Z,97571.66
2023-03-08T01:38:55.255Z,97568.09
2023-03-08T01:41:29.454Z,97556.13
2023-03-08T01:43:56.733Z,97548.59
2023-03-08T01:46:35.257Z,97533.16
2023-03-08T01:49:06.565Z,97559.41
2023-03-08T01:52:07.185Z,97551.22
2023-03-08T01:54:46.906Z,97537.66
2023-03-08T01:57:19.129Z,97548.59
2023-03-08T01:59:49.071Z,97543.31
2023-03-08T02:02:21.850Z,97529.19
2023-03-08T02:04:48.680Z,97534.41
2023-03-08T02:07:15.543Z,97528.19
2023-03-08T02:09:42.667Z,97523.97
2023-03-08T02:12:13.137Z,97527.03
2023-03-08T02:14:42.758Z,97516.09
2023-03-08T02:17:10.013Z,97518.06
2023-03-08T02:19:55.036Z,97537.31
2023-03-08T02:22:22.378Z,97527.88
2023-03-08T02:24:49.190Z,97487.47
2023-03-08T02:27:24.934Z,97529.53
2023-03-08T02:29:52.056Z,97529.34
2023-03-08T02:32:19.026Z,97499.00
2023-03-08T02:34:46.065Z,97507.03
2023-03-08T02:37:12.916Z,97498.66
2023-03-08T02:39:39.781Z,97484.41
2023-03-08T02:42:06.834Z,97507.53
2023-03-08T02:44:33.710Z,97506.66
2023-03-08T02:47:00.562Z,97484.25
2023-03-08T02:49:27.384Z,97493.53
2023-03-08T02:51:54.218Z,97476.78
2023-03-08T02:54:21.060Z,97491.22
2023-03-08T02:56:47.910Z,97473.13
2023-03-08T02:59:14.769Z,97492.28
2023-03-08T03:01:41.759Z,97490.56
2023-03-08T03:04:08.659Z,97488.06
2023-03-08T03:06:35.577Z,97473.22
2023-03-08T03:09:08.049Z,97479.78
2023-03-08T03:11:34.967Z,97464.66
2023-03-08T03:14:02.387Z,97473.72
2023-03-08T03:16:29.260Z,97477.22
2023-03-08T03:18:56.890Z,97434.56
2023-03-08T03:21:24.843Z,97450.34
2023-03-08T03:23:51.812Z,97448.69
2023-03-08T03:26:21.777Z,97435.00
2023-03-08T03:28:49.594Z,97442.97
2023-03-08T03:31:22.464Z,97430.03
2023-03-08T03:33:49.935Z,97435.66
2023-03-08T03:36:20.843Z,97424.38
2023-03-08T03:38:49.048Z,97409.28
2023-03-08T03:41:20.745Z,97426.88
2023-03-08T03:43:49.228Z,97420.56
2023-03-08T03:46:18.960Z,97418.41
2023-03-08T03:48:46.519Z,97418.41
2023-03-08T03:51:16.897Z,97407.53
2023-03-08T03:53:44.073Z,97413.25
2023-03-08T03:56:19.639Z,97409.72
2023-03-08T03:58:47.320Z,97410.59
2023-03-08T04:01:29.638Z,97390.31
2023-03-08T04:03:57.392Z,97391.72
2023-03-08T04:06:30.317Z,97385.91
2023-03-08T04:09:04.573Z,97392.69
2023-03-08T04:11:38.123Z,97356.06
2023-03-08T04:14:06.098Z,97390.97
2023-03-08T04:16:35.881Z,97388.22
2023-03-08T04:19:08.183Z,97372.88
2023-03-08T04:21:36.161Z,97362.22
2023-03-08T04:24:03.612Z,97365.50
2023-03-08T04:26:30.570Z,97382.34
2023-03-08T04:28:57.658Z,97371.50
2023-03-08T04:31:28.477Z,97375.88
2023-03-08T04:33:56.144Z,97359.91
2023-03-08T04:36:23.406Z,97368.34
2023-03-08T04:38:51.680Z,97371.94
2023-03-08T04:41:19.259Z,97374.91
2023-03-08T04:43:51.262Z,97344.44
2023-03-08T04:46:21.703Z,97362.63
2023-03-08T04:48:49.239Z,97358.47
2023-03-08T04:51:16.841Z,97359.06
2023-03-08T04:53:45.417Z,97324.59
2023-03-08T04:56:14.314Z,97349.13
2023-03-08T04:58:41.892Z,97342.06
2023-03-08T05:01:23.013Z,97348.78
2023-03-08T05:03:52.863Z,97331.88
2023-03-08T05:06:22.675Z,97329.47
2023-03-08T05:08:49.623Z,97314.50
2023-03-08T05:11:23.941Z,97327.16
2023-03-08T05:13:53.523Z,97280.03
2023-03-08T05:16:20.882Z,97311.13
2023-03-08T05:18:47.890Z,97284.56
2023-03-08T05:21:18.474Z,97304.06
2023-03-08T05:23:45.456Z,97289.72
2023-03-08T05:26:15.304Z,97307.31
2023-03-08T05:28:42.800Z,97311.03
2023-03-08T05:31:15.129Z,97312.75
2023-03-08T05:33:44.202Z,97285.59
2023-03-08T05:36:11.402Z,97306.84
2023-03-08T05:38:38.364Z,97289.94
2023-03-08T05:41:08.604Z,97302.19
2023-03-08T05:43:36.039Z,97295.16
2023-03-08T05:46:08.133Z,97294.63
2023-03-08T05:48:35.860Z,97272.59
2023-03-08T05:51:15.630Z,97272.97
2023-03-08T05:53:43.069Z,97269.31
2023-03-08T05:56:20.749Z,97261.69
2023-03-08T05:58:48.438Z,97258.09
2023-03-08T06:01:26.191Z,97246.28
2023-03-08T06:03:56.262Z,97259.88
2023-03-08T06:06:27.815Z,97266.41
2023-03-08T06:08:56.282Z,97269.78
2023-03-08T06:11:23.846Z,97256.56
2023-03-08T06:13:50.835Z,97270.63
2023-03-08T06:16:17.870Z,97272.25
2023-03-08T06:18:44.792Z,97253.97
2023-03-08T06:21:15.704Z,97242.13
2023-03-08T06:23:43.446Z,97266.13
2023-03-08T06:26:11.652Z,97258.31
2023-03-08T06:28:41.990Z,97245.09
2023-03-08T06:31:15.186Z,97223.78
2023-03-08T06:33:42.695Z,97231.31
2023-03-08T06:36:16.706Z,97242.97
2023-03-08T06:38:43.859Z,97239.38
2023-03-08T06:41:13.463Z,97232.59
2023-03-08T06:43:41.650Z,97219.38
2023-03-08T06:46:16.894Z,97229.94
2023-03-08T06:48:44.848Z,97220.59
2023-03-08T06:51:11.725Z,97209.56
2023-03-08T06:53:38.875Z,97207.53
2023-03-08T06:56:08.573Z,97207.53
2023-03-08T06:58:36.986Z,97185.78
2023-03-08T07:01:05.599Z,97191.47
2023-03-08T07:03:33.761Z,97188.53
2023-03-08T07:06:07.254Z,97169.41
2023-03-08T07:08:35.044Z,97182.66
2023-03-08T07:11:02.353Z,97163.63
2023-03-08T07:13:29.823Z,97183.38
2023-03-08T07:15:57.495Z,97183.31
2023-03-08T07:18:24.840Z,97166.41
2023-03-08T07:20:55.585Z,97135.47
2023-03-08T07:23:22.889Z,97157.50
2023-03-08T07:25:49.872Z,97155.75
2023-03-08T07:28:16.786Z,97157.50
2023-03-08T07:30:53.553Z,97156.75
2023-03-08T07:33:21.828Z,97127.59
2023-03-08T07:35:49.123Z,97152.91
2023-03-08T07:38:17.111Z,97151.78
2023-03-08T07:40:44.391Z,97142.13
2023-03-08T07:43:11.676Z,97146.63
2023-03-08T07:45:42.044Z,97126.25
2023-03-08T07:48:08.849Z,97133.44
2023-03-08T07:50:35.769Z,97134.16
2023-03-08T07:53:04.353Z,97124.22
2023-03-08T07:55:31.349Z,97129.75
2023-03-08T07:57:58.226Z,97113.84
2023-03-08T08:00:25.404Z,97115.13
2023-03-08T08:02:54.123Z,97104.09
2023-03-08T08:05:22.143Z,97110.63
2023-03-08T08:07:49.805Z,97091.34
2023-03-08T08:10:17.210Z,97103.63
2023-03-08T08:12:44.068Z,97081.78
2023-03-08T08:15:11.558Z,97076.38
2023-03-08T08:17:38.396Z,97070.09
2023-03-08T08:20:08.119Z,97054.66
2023-03-08T08:22:37.120Z,97037.88
2023-03-08T08:25:08.727Z,97053.47
2023-03-08T08:27:36.495Z,97042.63
2023-03-08T08:30:05.962Z,97034.72
2023-03-08T08:32:35.258Z,97029.19
2023-03-08T08:35:02.313Z,97023.53
2023-03-08T08:37:31.148Z,97010.06
2023-03-08T08:39:58.373Z,96990.09
2023-03-08T08:42:26.086Z,96980.38
2023-03-08T08:44:53.534Z,97002.84
2023-03-08T08:47:20.320Z,96978.53
2023-03-08T08:49:47.282Z,96950.63
2023-03-08T08:52:14.098Z,96994.81
2023-03-08T08:54:41.035Z,96986.69
2023-03-08T08:57:07.893Z,96973.03
2023-03-08T08:59:34.900Z,96957.34
2023-03-08T09:02:02.590Z,96983.09
2023-03-08T09:04:29.590Z,96979.41
2023-03-08T09:06:56.643Z,96965.59
2023-03-08T09:09:23.556Z,96965.00
2023-03-08T09:11:55.152Z,96947.25
2023-03-08T09:14:22.694Z,96939.97
2023-03-08T09:16:49.675Z,96965.31
2023-03-08T09:19:16.612Z,96959.63
2023-03-08T09:21:43.664Z,96958.00
2023-03-08T09:24:12.069Z,96942.94
2023-03-08T09:26:39.374Z,96939.38
2023-03-08T09:29:07.417Z,96950.59
2023-03-08T09:31:37.491Z,96951.13
2023-03-08T09:34:08.885Z,96938.06
2023-03-08T09:36:39.455Z,96923.63
2023-03-08T09:39:08.931Z,96939.50
2023-03-08T09:41:44.568Z,96926.72
2023-03-08T09:44:32.392Z,96917.06
2023-03-08T09:47:13.685Z,96915.81
2023-03-08T09:49:45.483Z,96863.09
2023-03-08T09:52:24.974Z,96908.38
2023-03-08T09:54:52.775Z,96902.34
2023-03-08T09:57:42.397Z,96901.41
2023-03-08T10:00:31.700Z,96908.38
2023-03-08T10:03:26.555Z,96896.25
2023-03-08T10:06:22.946Z,96887.41
2023-03-08T10:09:29.290Z,96893.28
2023-03-08T10:12:13.378Z,96873.63
2023-03-08T10:14:49.912Z,96876.06
2023-03-08T10:17:30.588Z,96834.88
2023-03-08T10:20:14.888Z,96870.94
2023-03-08T10:22:42.822Z,96882.53
2023-03-08T10:25:34.020Z,96884.50
2023-03-08T10:28:04.470Z,96863.09
2023-03-08T10:30:52.047Z,96881.81
2023-03-08T10:33:22.336Z,96883.47
2023-03-08T10:36:02.391Z,96879.34
2023-03-08T10:38:33.381Z,96866.47
2023-03-08T10:41:15.793Z,96869.06
2023-03-08T10:43:50.110Z,96869.56
2023-03-08T10:46:23.792Z,96857.63
2023-03-08T10:48:51.389Z,96855.75
2023-03-08T10:51:20.822Z,96854.50
2023-03-08T10:54:03.192Z,96837.91
2023-03-08T10:56:57.908Z,96847.88
2023-03-08T10:59:33.003Z,96843.22
2023-03-08T11:02:18.560Z,96831.69
2023-03-08T11:04:55.964Z,96829.25
2023-03-08T11:07:29.117Z,96817.19
2023-03-08T11:10:33.986Z,96813.19
2023-03-08T11:13:28.567Z,96827.50
2023-03-08T11:16:23.081Z,96828.97
2023-03-08T11:19:36.700Z,96791.16
2023-03-08T11:22:25.025Z,96823.13
2023-03-08T11:25:14.486Z,96832.44
2023-03-08T11:28:31.293Z,96820.03
2023-03-08T11:31:26.255Z,96798.94
2023-03-08T11:34:39.664Z,96835.94
2023-03-08T11:37:53.566Z,96809.63
2023-03-08T11:40:26.831Z,96789.69
2023-03-08T11:43:02.586Z,96808.53
2023-03-08T11:46:10.545Z,96797.28
2023-03-08T11:48:55.130Z,96805.66
2023-03-08T11:51:51.953Z,96785.50
2023-03-08T11:54:37.265Z,96798.75
2023-03-08T11:57:10.467Z,96800.25
2023-03-08T12:00:06.672Z,96802.78
2023-03-08T12:02:37.863Z,96793.75
2023-03-08T12:05:55.076Z,96804.34
2023-03-08T12:08:43.778Z,96814.13
2023-03-08T12:11:23.849Z,96801.56
2023-03-08T12:14:01.435Z,96782.44
2023-03-08T12:16:48.676Z,96818.56
2023-03-08T12:19:54.849Z,96796.16
2023-03-08T12:23:01.134Z,96803.03
2023-03-08T12:25:35.781Z,96804.28
2023-03-08T12:28:20.679Z,96793.81
2023-03-08T12:31:27.871Z,96785.47
2023-03-08T12:33:58.883Z,96806.47
2023-03-08T12:36:41.528Z,96790.94
2023-03-08T12:39:34.108Z,96796.38
2023-03-08T12:42:10.247Z,96807.25
2023-03-08T12:44:38.942Z,96787.19
2023-03-08T12:47:11.780Z,96827.47
2023-03-08T12:49:45.280Z,96821.22
2023-03-08T12:52:18.244Z,96814.69
2023-03-08T12:54:59.310Z,96812.47
2023-03-08T12:57:32.451Z,96835.94
2023-03-08T13:00:20.853Z,96806.78
2023-03-08T13:03:18.520Z,96799.81
2023-03-08T13:05:47.339Z,96819.91
2023-03-08T13:08:14.098Z,96810.09
2023-03-08T13:11:05.923Z,96814.47
2023-03-08T13:13:57.276Z,96824.31
2023-03-08T13:16:38.991Z,96820.78
2023-03-08T13:19:19.205Z,96817.06
2023-03-08T13:21:56.757Z,96822.03
2023-03-08T13:24:39.030Z,96803.28
2023-03-08T13:27:57.106Z,96822.59
2023-03-08T13:30:49.597Z,96825.75
2023-03-08T13:33:28.790Z,96825.47
2023-03-08T13:36:00.575Z,96825.75
2023-03-08T13:38:32.520Z,96820.53
2023-03-08T13:41:00.641Z,96830.66
2023-03-08T13:43:31.200Z,96829.84
2023-03-08T13:46:04.939Z,96832.31
2023-03-08T13:48:35.599Z,96841.84
2023-03-08T13:51:03.778Z,96819.47
2023-03-08T13:53:37.279Z,96816.19
2023-03-08T13:56:06.716Z,96808.66
2023-03-08T13:58:50.595Z,96808.81
2023-03-08T14:01:24.200Z,96800.75
2023-03-08T14:03:54.406Z,96805.25
2023-03-08T14:06:30.103Z,96798.69
2023-03-08T14:09:04.495Z,96779.56
2023-03-08T14:11:39.068Z,96771.94
2023-03-08T14:14:14.251Z,96779.03
2023-03-08T14:16:44.292Z,96770.28
2023-03-08T14:19:25.385Z,96752.38
2023-03-08T14:21:58.090Z,96759.47
2023-03-08T14:24:31.465Z,96762.84
2023-03-08T14:27:14.860Z,96782.13
2023-03-08T14:29:44.700Z,96773.22
2023-03-08T14:32:11.725Z,96769.50
2023-03-08T14:34:47.487Z,96754.91
2023-03-08T14:37:31.517Z,96761.56
2023-03-08T14:40:27.554Z,96745.81
2023-03-08T14:42:57.849Z,96760.50
2023-03-08T14:45:40.457Z,96751.31
2023-03-08T14:48:30.456Z,96698.53
2023-03-08T14:51:00.366Z,96747.53
2023-03-08T14:53:39.367Z,96741.06
2023-03-08T14:56:15.965Z,96717.34
2023-03-08T14:58:48.945Z,96734.66
2023-03-08T15:01:25.376Z,96733.13
2023-03-08T15:03:52.217Z,96756.50
2023-03-08T15:06:25.960Z,96739.78
2023-03-08T15:08:53.504Z,96731.31
2023-03-08T15:11:20.341Z,96716.75
2023-03-08T15:13:47.238Z,96726.41
2023-03-08T15:16:14.668Z,96721.91
2023-03-08T15:18:41.977Z,96729.41
2023-03-08T15:21:16.803Z,96737.06
2023-03-08T15:23:44.480Z,96713.56
2023-03-08T15:26:20.867Z,96712.66
2023-03-08T15:28:47.747Z,96708.13
2023-03-08T15:31:14.654Z,96722.59
2023-03-08T15:33:41.484Z,96703.72
2023-03-08T15:36:14.997Z,96692.25
2023-03-08T15:38:42.194Z,96712.19
2023-03-08T15:41:14.621Z,96688.41
2023-03-08T15:43:41.826Z,96693.22
2023-03-08T15:46:15.899Z,96670.00
2023-03-08T15:48:45.518Z,96674.06
2023-03-08T15:51:19.281Z,96667.09
2023-03-08T15:53:47.332Z,96701.19
2023-03-08T15:56:14.840Z,96671.47
2023-03-08T15:58:42.242Z,96698.38
2023-03-08T16:01:09.324Z,96691.41
2023-03-08T16:03:36.246Z,96690.72
2023-03-08T16:06:09.007Z,96690.63
2023-03-08T16:08:36.589Z,96669.63
2023-03-08T16:11:09.018Z,96707.00
2023-03-08T16:13:35.926Z,96668.78
2023-03-08T16:16:04.671Z,96706.84
2023-03-08T16:18:32.934Z,96696.59
2023-03-08T16:21:00.139Z,96699.88
2023-03-08T16:23:27.383Z,96702.09
2023-03-08T16:26:14.835Z,96694.44
2023-03-08T16:28:43.748Z,96685.00
2023-03-08T16:31:10.634Z,96692.22
2023-03-08T16:33:37.552Z,96664.53
2023-03-08T16:36:04.513Z,96691.41
2023-03-08T16:38:31.514Z,96695.53
2023-03-08T16:41:12.295Z,96705.91
2023-03-08T16:43:48.005Z,96721.50
2023-03-08T16:46:21.549Z,96711.72
2023-03-08T16:48:50.310Z,96725.50
2023-03-08T16:51:20.966Z,96702.72
2023-03-08T16:53:48.803Z,96681.00
2023-03-08T16:56:28.064Z,96707.91
2023-03-08T16:58:59.026Z,96705.59
2023-03-08T17:01:26.618Z,96700.31
2023-03-08T17:03:53.620Z,96709.03
2023-03-08T17:06:24.889Z,96699.47
2023-03-08T17:08:52.334Z,96696.75
2023-03-08T17:11:23.947Z,96710.69
2023-03-08T17:13:53.555Z,96677.97
2023-03-08T17:16:24.330Z,96698.41
2023-03-08T17:18:52.204Z,96717.56
2023-03-08T17:21:21.059Z,96709.91
2023-03-08T17:23:49.932Z,96711.56
2023-03-08T17:26:19.400Z,96720.69
2023-03-08T17:28:46.567Z,96723.03
2023-03-08T17:31:16.920Z,96718.91
2023-03-08T17:33:44.809Z,96721.41
2023-03-08T17:36:13.818Z,96716.19
2023-03-08T17:38:41.181Z,96725.22
2023-03-08T17:41:12.257Z,96725.63
2023-03-08T17:43:41.167Z,96718.53
2023-03-08T17:46:21.972Z,96725.22
2023-03-08T17:48:50.654Z,96700.13
2023-03-08T17:51:22.023Z,96727.94
2023-03-08T17:53:49.745Z,96721.81
2023-03-08T17:56:21.256Z,96725.75
2023-03-08T17:58:49.225Z,96720.72
2023-03-08T18:01:18.602Z,96747.09
2023-03-08T18:03:46.647Z,96709.38
2023-03-08T18:06:26.898Z,96720.56
2023-03-08T18:08:54.119Z,96722.91
2023-03-08T18:11:21.468Z,96734.78
2023-03-08T18:13:48.845Z,96748.16
2023-03-08T18:16:15.726Z,96722.91
2023-03-08T18:18:42.621Z,96700.81
2023-03-08T18:21:13.933Z,96713.59
2023-03-08T18:23:43.133Z,96734.38
2023-03-08T18:26:13.604Z,96721.69
2023-03-08T18:28:41.230Z,96723.59
2023-03-08T18:31:10.811Z,96730.69
2023-03-08T18:33:37.787Z,96726.31
2023-03-08T18:36:05.122Z,96719.91
2023-03-08T18:38:32.022Z,96708.44
2023-03-08T18:40:58.961Z,96729.34
2023-03-08T18:43:26.037Z,96726.03
2023-03-08T18:45:55.709Z,96735.59
2023-03-08T18:48:24.728Z,96723.84
2023-03-08T18:50:51.631Z,96730.94
2023-03-08T18:53:18.731Z,96721.69
2023-03-08T18:56:00.720Z,96726.34
2023-03-08T18:58:27.981Z,96702.84
2023-03-08T19:00:58.992Z,96698.72
2023-03-08T19:03:27.050Z,96712.78
2023-03-08T19:05:54.188Z,96707.72
2023-03-08T19:08:22.326Z,96715.63
2023-03-08T19:10:49.154Z,96654.84
2023-03-08T19:13:15.973Z,96680.16
2023-03-08T19:15:42.834Z,96705.56
2023-03-08T19:18:10.326Z,96705.03
2023-03-08T19:20:39.534Z,96707.31
2023-03-08T19:23:07.065Z,96719.19
2023-03-08T19:25:56.272Z,96710.88
2023-03-08T19:28:23.429Z,96716.75
2023-03-08T19:30:50.285Z,96712.38
2023-03-08T19:33:29.845Z,96712.63
2023-03-08T19:35:57.637Z,96714.53
2023-03-08T19:38:24.527Z,96709.31
2023-03-08T19:40:51.373Z,96719.03
2023-03-08T19:43:18.320Z,96705.56
2023-03-08T19:45:49.655Z,96723.78
2023-03-08T19:48:16.543Z,96707.09
2023-03-08T19:50:46.934Z,96730.72
2023-03-08T19:53:13.867Z,96723.03
2023-03-08T19:55:54.578Z,96708.78
2023-03-08T19:58:24.668Z,96697.78
2023-03-08T20:01:01.796Z,96688.44
2023-03-08T20:03:28.822Z,96711.91
2023-03-08T20:05:55.812Z,96715.34
2023-03-08T20:08:23.144Z,96717.09
2023-03-08T20:10:50.048Z,96703.50
2023-03-08T20:13:16.896Z,96712.91
2023-03-08T20:15:43.791Z,96730.22
2023-03-08T20:18:10.920Z,96724.53
2023-03-08T20:20:37.707Z,96724.38
2023-03-08T20:23:05.071Z,96707.28
2023-03-08T20:25:32.080Z,96719.75
2023-03-08T20:27:58.917Z,96699.16
2023-03-08T20:30:25.738Z,96710.47
2023-03-08T20:32:53.218Z,96685.75
2023-03-08T20:35:21.629Z,96713.81
2023-03-08T20:37:49.625Z,96700.72
2023-03-08T20:40:16.850Z,96717.63
2023-03-08T20:42:43.687Z,96737.13
2023-03-08T20:45:10.982Z,96735.91
2023-03-08T20:47:37.825Z,96725.28
2023-03-08T20:50:05.125Z,96728.84
2023-03-08T20:52:31.945Z,96723.47
2023-03-08T20:54:58.868Z,96734.59
2023-03-08T20:57:25.731Z,96726.28
2023-03-08T20:59:52.525Z,96718.28
2023-03-08T21:02:19.403Z,96722.28
2023-03-08T21:04:46.764Z,96727.63
2023-03-08T21:07:13.611Z,96720.94
2023-03-08T21:09:40.588Z,96730.47
2023-03-08T21:12:07.922Z,96736.34
2023-03-08T21:14:34.787Z,96736.75
2023-03-08T21:17:01.609Z,96744.38
2023-03-08T21:19:28.419Z,96739.78
2023-03-08T21:21:55.321Z,96739.50
2023-03-08T21:24:22.980Z,96732.66
2023-03-08T21:26:50.105Z,96727.47
2023-03-08T21:29:19.976Z,96728.72
2023-03-08T21:31:50.528Z,96721.31
2023-03-08T21:34:18.776Z,96735.16
2023-03-08T21:36:45.908Z,96742.22
2023-03-08T21:39:13.426Z,96731.88
2023-03-08T21:41:44.685Z,96723.13
2023-03-08T21:44:19.117Z,96732.56
2023-03-08T21:46:46.898Z,96731.63
2023-03-08T21:49:23.706Z,96726.66
2023-03-08T21:51:52.728Z,96704.63
2023-03-08T21:54:21.240Z,96730.22
2023-03-08T21:56:48.457Z,96721.81
2023-03-08T21:59:16.735Z,96737.94
2023-03-08T22:01:48.323Z,96729.59
2023-03-08T22:04:17.718Z,96722.63
2023-03-08T22:06:44.608Z,96720.69
2023-03-08T22:09:11.478Z,96731.47
2023-03-08T22:11:38.468Z,96722.19
2023-03-08T22:14:06.235Z,96741.97
2023-03-08T22:16:37.715Z,96736.13
2023-03-08T22:19:05.375Z,96724.53
2023-03-08T22:21:36.138Z,96717.69
2023-03-08T22:24:02.996Z,96689.31
2023-03-08T22:26:31.158Z,96722.34
2023-03-08T22:28:58.510Z,96703.50
2023-03-08T22:31:27.784Z,96722.06
2023-03-08T22:33:54.729Z,96687.13
2023-03-08T22:36:22.970Z,96696.16
2023-03-08T22:38:49.966Z,96693.69
2023-03-08T22:41:23.728Z,96681.00
2023-03-08T22:43:51.256Z,96699.59
2023-03-08T22:46:25.031Z,96704.63
2023-03-08T22:48:53.068Z,96707.06
2023-03-08T22:51:22.036Z,96705.13
2023-03-08T22:53:49.623Z,96702.13
2023-03-08T22:56:26.947Z,96699.78
2023-03-08T22:58:54.050Z,96670.28
2023-03-08T23:01:23.319Z,96691.75
2023-03-08T23:03:55.010Z,96683.78
2023-03-08T23:06:21.942Z,96691.84
2023-03-08T23:08:48.801Z,96668.81
2023-03-08T23:11:15.656Z,96668.25
2023-03-08T23:13:42.896Z,96678.09
2023-03-08T23:16:13.747Z,96678.09
2023-03-08T23:18:41.414Z,96660.09
2023-03-08T23:21:14.273Z,96655.84
2023-03-08T23:23:41.682Z,96638.91
2023-03-08T23:26:12.660Z,96624.06
2023-03-08T23:28:39.964Z,96607.69
2023-03-08T23:31:22.615Z,96617.50
2023-03-08T23:33:50.644Z,96621.06
2023-03-08T23:36:21.140Z,96629.81
2023-03-08T23:38:48.251Z,96623.81
2023-03-08T23:41:15.752Z,96613.72
2023-03-08T23:43:43.505Z,96595.13
2023-03-08T23:46:17.768Z,96582.31
2023-03-08T23:48:46.765Z,96573.34
2023-03-08T23:51:19.594Z,96591.06
2023-03-08T23:53:52.404Z,96567.91
2023-03-08T23:56:30.059Z,96558.38
2023-03-08T23:59:01.153Z,96564.91
